Hornbeck, Louisiana
Current Conditions -  °F | °C
As of 10:22 AM on Thursday 29 Jan 2015 (Local Time) from KAQV Reporting Station
Broken Clouds Broken Clouds  
Wind Chill: 63°   Ceiling: 1400
Heat Index: 63°   Visibility: 10mi
Dew Point: 56°   Wind: 7mph
Humidity: 78%   Direction: NA
Pressure: 30.22"   Gusts: NA
Location:  31.33°N, 93.4°W
Report Text: KAQV 291622Z AUTO VRB06KT 10SM SCT010 BKN014 17/13 A3022 RMK AO2 T01720133
Loading
Personal Weather Stations






























Interactive Weather Map New forecast layout! Learn more

10-Day Weather Forecast

Advertisements
Track Severe Weather on mobile